Archival Weather

Norman Y Mineta San Jose Intl

San Jose, California (KSJC)

Report from: Saturday, February 3, 2024 5:53 AM PST
Current time: Friday, June 14, 2024 6:51 AM PDT

Current weather – Weather history – Daily summaries
Weather forecast

Temperature8.3°C (46.9°F)
Wind chill6.8°C (44.2°F)
Dew point5.6°C (42.1°F)
Winds 5 kts (2.6 m/s, 5.8 mph) South-Southeast (150°)
Visibility10 mi. (16.1 km)
Clouds Ceiling: Broken clouds 5,000 ft. (1,524 m)
Overcast 6,000 ft. (1,829 m)
Altimeter30.01 in.Hg (1016 mB)
Relative humidity83 %
Density altitude-765 ft. (-233 m)
Sea-level pressure101.6 kPa (1016 mB, 30.00 in.Hg)
Remarks Automated weather observing station with precipitation discriminator
Flight conditions Visual Meteorological Conditions
Raw dataKSJC 031353Z 15005KT 10SM BKN050 OVC060 08/06 A3001 RMK AO2 SLP160 T00830056
An error has occurred. This application may no longer respond until reloaded. Reload 🗙